createdAt,value
2023-02-17T00:00:20.629Z,58.53
2023-02-17T00:02:48.921Z,56.90
2023-02-17T00:05:17.244Z,56.03
2023-02-17T00:07:45.483Z,60.17
2023-02-17T00:10:14.989Z,64.22
2023-02-17T00:12:43.543Z,66.68
2023-02-17T00:15:12.092Z,60.88
2023-02-17T00:17:40.438Z,62.35
2023-02-17T00:20:10.431Z,66.70
2023-02-17T00:22:38.559Z,66.82
2023-02-17T00:25:11.271Z,66.60
2023-02-17T00:27:45.308Z,71.97
2023-02-17T00:30:14.084Z,72.82
2023-02-17T00:32:42.316Z,69.22
2023-02-17T00:35:10.621Z,78.47
2023-02-17T00:37:45.635Z,66.80
2023-02-17T00:40:16.938Z,66.85
2023-02-17T00:42:46.619Z,73.38
2023-02-17T00:45:18.027Z,71.88
2023-02-17T00:47:46.279Z,65.65
2023-02-17T00:50:14.508Z,72.10
2023-02-17T00:52:42.890Z,66.95
2023-02-17T00:55:13.429Z,69.90
2023-02-17T00:57:41.668Z,73.60
2023-02-17T01:00:14.938Z,70.47
2023-02-17T01:02:43.072Z,75.68
2023-02-17T01:05:11.262Z,71.88
2023-02-17T01:07:39.346Z,72.30
2023-02-17T01:10:09.137Z,71.30
2023-02-17T01:12:37.242Z,73.05
2023-02-17T01:15:05.692Z,68.65
2023-02-17T01:17:35.459Z,69.18
2023-02-17T01:20:03.635Z,70.70
2023-02-17T01:22:31.932Z,71.50
2023-02-17T01:25:01.212Z,69.18
2023-02-17T01:27:29.870Z,67.80
2023-02-17T01:29:58.197Z,70.68
2023-02-17T01:32:28.416Z,77.55
2023-02-17T01:34:58.044Z,70.30
2023-02-17T01:37:26.323Z,69.47
2023-02-17T01:39:56.091Z,68.68
2023-02-17T01:42:24.168Z,70.03
2023-02-17T01:45:36.589Z,69.50
2023-02-17T01:48:10.426Z,68.82
2023-02-17T01:50:44.264Z,69.15
2023-02-17T01:53:15.668Z,66.25
2023-02-17T01:55:44.936Z,70.13
2023-02-17T01:58:16.704Z,66.85
2023-02-17T02:00:45.785Z,72.50
2023-02-17T02:03:15.345Z,66.95
2023-02-17T02:05:45.121Z,76.97
2023-02-17T02:08:14.742Z,70.43
2023-02-17T02:10:45.313Z,75.07
2023-02-17T02:13:13.668Z,70.82
2023-02-17T02:15:47.347Z,76.10
2023-02-17T02:18:36.700Z,79.25
2023-02-17T02:21:41.927Z,78.40
2023-02-17T02:24:26.485Z,86.03
2023-02-17T02:27:30.497Z,79.47
2023-02-17T02:30:17.376Z,77.82
2023-02-17T02:32:57.191Z,91.50
2023-02-17T02:35:35.282Z,96.05
2023-02-17T02:38:08.189Z,95.65
2023-02-17T02:40:41.990Z,96.47
2023-02-17T02:43:16.008Z,95.60
2023-02-17T02:45:44.851Z,98.97
2023-02-17T02:48:14.364Z,100.65
2023-02-17T02:51:15.610Z,100.07
2023-02-17T02:53:58.375Z,95.25
2023-02-17T02:56:39.405Z,94.68
2023-02-17T02:59:15.394Z,98.15
2023-02-17T03:01:51.801Z,100.88
2023-02-17T03:04:27.746Z,96.78
2023-02-17T03:07:00.844Z,106.15
2023-02-17T03:09:30.253Z,111.85
2023-02-17T03:12:00.436Z,110.55
2023-02-17T03:14:39.328Z,114.75
2023-02-17T03:17:07.523Z,111.18
2023-02-17T03:19:37.431Z,98.03
2023-02-17T03:22:12.890Z,101.47
2023-02-17T03:24:41.156Z,107.78
2023-02-17T03:27:10.227Z,108.15
2023-02-17T03:29:38.463Z,107.80
2023-02-17T03:32:09.800Z,109.00
2023-02-17T03:34:39.315Z,106.65
2023-02-17T03:37:07.588Z,106.50
2023-02-17T03:39:35.832Z,106.80
2023-02-17T03:42:04.420Z,106.03
2023-02-17T03:44:32.671Z,109.47
2023-02-17T03:47:01.074Z,106.35
2023-02-17T03:49:29.660Z,111.53
2023-02-17T03:51:59.477Z,107.57
2023-02-17T03:54:27.764Z,104.93
2023-02-17T03:56:56.122Z,106.25
2023-02-17T03:59:24.393Z,110.60
2023-02-17T04:01:52.817Z,115.13
2023-02-17T04:04:21.153Z,109.82
2023-02-17T04:06:49.446Z,118.93
2023-02-17T04:09:21.287Z,117.75
2023-02-17T04:11:49.581Z,118.22
2023-02-17T04:14:17.760Z,120.57
2023-02-17T04:16:45.921Z,119.57
2023-02-17T04:19:14.054Z,118.78
2023-02-17T04:21:42.277Z,129.20
2023-02-17T04:24:11.155Z,125.90
2023-02-17T04:26:40.607Z,124.53
2023-02-17T04:29:08.945Z,117.03
2023-02-17T04:31:37.238Z,119.38
2023-02-17T04:34:05.563Z,119.15
2023-02-17T04:36:35.183Z,120.30
2023-02-17T04:39:03.482Z,123.75
2023-02-17T04:41:31.757Z,124.50
2023-02-17T04:44:04.880Z,126.47
2023-02-17T04:46:33.024Z,130.50
2023-02-17T04:49:01.489Z,119.57
2023-02-17T04:51:30.709Z,131.65
2023-02-17T04:53:58.824Z,131.02
2023-02-17T04:56:29.624Z,125.97
2023-02-17T04:58:57.772Z,126.53
2023-02-17T05:01:27.468Z,131.02
2023-02-17T05:03:55.717Z,127.35
2023-02-17T05:06:23.950Z,127.40
2023-02-17T05:08:53.670Z,131.70
2023-02-17T05:11:21.957Z,136.20
2023-02-17T05:13:50.160Z,134.20
2023-02-17T05:16:18.340Z,132.05
2023-02-17T05:18:48.165Z,132.50
2023-02-17T05:21:16.422Z,135.30
2023-02-17T05:23:44.857Z,130.32
2023-02-17T05:26:13.042Z,133.75
2023-02-17T05:28:41.366Z,142.50
2023-02-17T05:31:10.676Z,145.00
2023-02-17T05:33:38.997Z,138.52
2023-02-17T05:36:10.775Z,147.25
2023-02-17T05:38:40.043Z,133.65
2023-02-17T05:41:08.584Z,140.88
2023-02-17T05:43:36.737Z,138.43
2023-02-17T05:46:06.501Z,140.95
2023-02-17T05:48:35.123Z,147.02
2023-02-17T05:51:03.305Z,153.25
2023-02-17T05:53:33.189Z,142.23
2023-02-17T05:56:07.302Z,139.88
2023-02-17T05:58:35.778Z,142.40
2023-02-17T06:01:08.128Z,138.63
2023-02-17T06:03:37.150Z,145.18
2023-02-17T06:06:05.942Z,142.45
2023-02-17T06:08:36.798Z,146.65
2023-02-17T06:11:05.785Z,137.02
2023-02-17T06:13:33.896Z,138.50
2023-02-17T06:16:02.126Z,142.75
2023-02-17T06:18:30.386Z,136.23
2023-02-17T06:20:59.306Z,134.73
2023-02-17T06:23:28.016Z,137.02
2023-02-17T06:25:57.515Z,134.40
2023-02-17T06:28:26.074Z,131.07
2023-02-17T06:30:54.276Z,130.40
2023-02-17T06:33:22.576Z,127.88
2023-02-17T06:35:51.803Z,133.30
2023-02-17T06:38:20.095Z,131.25
2023-02-17T06:40:49.475Z,118.55
2023-02-17T06:43:21.443Z,109.32
2023-02-17T06:45:49.676Z,110.07
2023-02-17T06:48:17.938Z,112.57
2023-02-17T06:50:46.610Z,110.72
2023-02-17T06:53:16.628Z,94.38
2023-02-17T06:55:45.742Z,100.68
2023-02-17T06:58:14.691Z,92.50
2023-02-17T07:00:44.420Z,87.05
2023-02-17T07:03:13.051Z,87.00
2023-02-17T07:05:41.343Z,86.22
2023-02-17T07:08:09.549Z,76.07
2023-02-17T07:10:38.702Z,82.28
2023-02-17T07:13:06.880Z,71.20
2023-02-17T07:15:36.922Z,78.65
2023-02-17T07:18:07.028Z,66.30
2023-02-17T07:20:35.657Z,65.63
2023-02-17T07:23:04.567Z,67.72
2023-02-17T07:25:33.212Z,63.97
2023-02-17T07:28:01.584Z,59.78
2023-02-17T07:30:32.315Z,60.88
2023-02-17T07:33:00.539Z,87.50
2023-02-17T07:35:30.054Z,56.17
2023-02-17T07:37:58.943Z,59.10
2023-02-17T07:40:27.936Z,57.83
2023-02-17T07:42:57.745Z,61.42
2023-02-17T07:45:25.915Z,53.67
2023-02-17T07:47:54.612Z,53.55
2023-02-17T07:50:23.683Z,54.45
2023-02-17T07:52:53.448Z,55.90
2023-02-17T07:55:24.248Z,53.17
2023-02-17T07:57:52.601Z,50.83
2023-02-17T08:00:21.821Z,49.45
2023-02-17T08:02:49.919Z,50.80
2023-02-17T08:05:18.304Z,49.33
2023-02-17T08:08:09.244Z,46.53
2023-02-17T08:10:57.790Z,47.33
2023-02-17T08:13:27.101Z,46.10
2023-02-17T08:15:55.389Z,45.75
2023-02-17T08:18:23.654Z,47.80
2023-02-17T08:20:52.276Z,42.97
2023-02-17T08:23:21.782Z,40.13
2023-02-17T08:25:51.215Z,42.03
2023-02-17T08:28:20.747Z,41.92
2023-02-17T08:30:51.382Z,44.90
2023-02-17T08:33:20.119Z,38.90
2023-02-17T08:35:48.758Z,45.33
2023-02-17T08:38:17.250Z,40.88
2023-02-17T08:40:45.473Z,44.60
2023-02-17T08:43:15.565Z,45.08
2023-02-17T08:45:44.108Z,42.88
2023-02-17T08:48:12.386Z,41.25
2023-02-17T08:50:40.736Z,44.42
2023-02-17T08:53:09.094Z,39.97
2023-02-17T08:55:48.554Z,39.05
2023-02-17T08:58:19.370Z,42.20
2023-02-17T09:00:47.951Z,44.47
2023-02-17T09:03:16.109Z,49.33
2023-02-17T09:05:46.725Z,48.88
2023-02-17T09:08:15.483Z,44.95
2023-02-17T09:10:43.886Z,45.10
2023-02-17T09:13:12.350Z,43.20
2023-02-17T09:15:42.012Z,46.80
2023-02-17T09:18:10.411Z,49.63
2023-02-17T09:20:39.658Z,44.20
2023-02-17T09:23:08.528Z,45.22
2023-02-17T09:25:36.686Z,41.72
2023-02-17T09:28:07.713Z,44.67
2023-02-17T09:30:36.609Z,45.30
2023-02-17T09:33:06.304Z,47.17
2023-02-17T09:35:34.976Z,47.95
2023-02-17T09:38:03.358Z,47.05
2023-02-17T09:40:43.071Z,60.60
2023-02-17T09:43:15.549Z,53.50
2023-02-17T09:45:47.712Z,52.38
2023-02-17T09:48:20.435Z,49.95
2023-02-17T09:53:28.280Z,52.80
2023-02-17T09:56:00.206Z,48.78
2023-02-17T09:58:34.715Z,49.37
2023-02-17T10:01:05.964Z,47.63
2023-02-17T10:03:39.778Z,52.95
2023-02-17T10:06:16.960Z,47.42
2023-02-17T10:08:52.001Z,47.60
2023-02-17T10:11:29.374Z,46.80
2023-02-17T10:14:28.040Z,47.65
2023-02-17T10:17:03.694Z,51.78
2023-02-17T10:19:37.559Z,47.80
2023-02-17T10:22:12.197Z,48.00
2023-02-17T10:24:42.961Z,51.70
2023-02-17T10:27:28.530Z,50.42
2023-02-17T10:30:08.622Z,52.00
2023-02-17T10:32:46.980Z,51.03
2023-02-17T10:35:19.371Z,52.20
2023-02-17T10:40:21.789Z,53.10
2023-02-17T10:45:30.630Z,51.53
2023-02-17T10:48:03.705Z,52.03
2023-02-17T10:50:38.177Z,51.83
2023-02-17T10:53:15.409Z,52.13
2023-02-17T10:55:54.102Z,51.33
2023-02-17T10:58:27.088Z,51.15
2023-02-17T11:00:57.399Z,50.40
2023-02-17T11:03:29.061Z,47.85
2023-02-17T11:06:00.554Z,46.38
2023-02-17T11:08:36.335Z,47.47
2023-02-17T11:11:07.115Z,47.80
2023-02-17T11:13:39.011Z,44.63
2023-02-17T11:16:08.696Z,43.92
2023-02-17T11:18:46.272Z,46.53
2023-02-17T11:21:16.509Z,45.80
2023-02-17T11:23:50.402Z,49.75
2023-02-17T11:26:25.412Z,43.97
2023-02-17T11:28:53.696Z,46.47
2023-02-17T11:31:27.651Z,42.70
2023-02-17T11:33:57.031Z,44.05
2023-02-17T11:36:32.380Z,43.53
2023-02-17T11:41:40.904Z,40.53
2023-02-17T11:44:11.149Z,44.10
2023-02-17T11:46:45.545Z,38.50
2023-02-17T11:49:38.003Z,38.70
2023-02-17T11:52:28.791Z,37.33
2023-02-17T11:55:12.755Z,37.55
2023-02-17T11:57:45.693Z,37.88
2023-02-17T12:00:20.388Z,36.97
2023-02-17T12:03:07.535Z,36.22
2023-02-17T12:05:50.174Z,32.92
2023-02-17T12:08:24.845Z,36.85
2023-02-17T12:11:06.013Z,36.03
2023-02-17T12:13:46.584Z,29.40
2023-02-17T12:16:26.120Z,30.48
2023-02-17T12:19:05.283Z,26.73
2023-02-17T12:21:48.610Z,29.42
2023-02-17T12:24:35.681Z,26.95
2023-02-17T12:27:12.055Z,24.60
2023-02-17T12:29:58.463Z,28.35
2023-02-17T12:32:40.213Z,23.35
2023-02-17T12:35:18.045Z,29.13
2023-02-17T12:37:51.823Z,21.10
2023-02-17T12:40:33.758Z,22.42
2023-02-17T12:43:07.814Z,21.63
2023-02-17T12:45:42.693Z,22.42
2023-02-17T12:48:17.483Z,23.10
2023-02-17T12:50:53.990Z,19.92
2023-02-17T12:53:40.533Z,19.48
2023-02-17T12:56:39.348Z,18.25
2023-02-17T12:59:15.088Z,16.80
2023-02-17T13:01:54.113Z,17.05
2023-02-17T13:04:26.491Z,16.70
2023-02-17T13:07:07.572Z,16.83
2023-02-17T13:09:38.862Z,15.20
2023-02-17T13:12:34.028Z,15.77
2023-02-17T13:15:03.984Z,15.00
2023-02-17T13:17:38.643Z,19.95
2023-02-17T13:20:29.374Z,15.38
2023-02-17T13:23:09.680Z,14.88
2023-02-17T13:25:38.684Z,15.90
2023-02-17T13:28:37.436Z,15.63
2023-02-17T13:31:16.319Z,15.90
2023-02-17T13:33:48.309Z,14.48
2023-02-17T13:36:23.582Z,13.87
2023-02-17T13:38:59.764Z,13.73
2023-02-17T13:41:29.014Z,14.18
2023-02-17T13:43:58.787Z,12.95
2023-02-17T13:46:28.674Z,13.43
2023-02-17T13:49:02.889Z,10.77
2023-02-17T13:51:33.743Z,11.27
2023-02-17T13:54:10.302Z,14.05
2023-02-17T13:56:38.459Z,12.88
2023-02-17T13:59:12.929Z,12.73
2023-02-17T14:01:43.931Z,9.95
2023-02-17T14:04:21.817Z,13.98
2023-02-17T14:06:56.195Z,10.63
2023-02-17T14:09:27.964Z,9.35
2023-02-17T14:11:57.936Z,9.38
2023-02-17T14:14:30.557Z,12.73
2023-02-17T14:17:01.964Z,11.38
2023-02-17T14:19:30.807Z,11.52
2023-02-17T14:22:02.371Z,10.80
2023-02-17T14:24:32.530Z,11.60
2023-02-17T14:27:03.141Z,12.85
2023-02-17T14:29:43.596Z,12.18
2023-02-17T14:32:27.636Z,15.43
2023-02-17T14:34:55.850Z,13.80
2023-02-17T14:37:26.213Z,16.48
2023-02-17T14:39:54.343Z,13.00
2023-02-17T14:42:22.478Z,12.15
2023-02-17T14:44:52.197Z,11.40
2023-02-17T14:47:20.408Z,14.50
2023-02-17T14:49:48.526Z,15.13
2023-02-17T14:52:20.507Z,15.25
2023-02-17T14:54:48.956Z,15.73
2023-02-17T14:57:18.601Z,16.73
2023-02-17T14:59:46.855Z,17.48
2023-02-17T15:02:20.432Z,21.73
2023-02-17T15:04:48.785Z,22.58
2023-02-17T15:07:18.461Z,22.02
2023-02-17T15:09:48.042Z,23.33
2023-02-17T15:12:18.258Z,23.60
2023-02-17T15:14:47.156Z,22.17
2023-02-17T15:17:17.093Z,21.55
2023-02-17T15:19:49.269Z,25.10
2023-02-17T15:22:17.426Z,24.35
2023-02-17T15:24:45.701Z,25.55
2023-02-17T15:27:17.986Z,22.38
2023-02-17T15:29:46.251Z,29.70
2023-02-17T15:32:19.275Z,27.55
2023-02-17T15:34:47.830Z,28.40
2023-02-17T15:37:16.040Z,24.73
2023-02-17T15:39:44.205Z,25.13
2023-02-17T15:42:14.793Z,28.27
2023-02-17T15:44:47.771Z,31.23
2023-02-17T15:47:19.383Z,31.00
2023-02-17T15:49:47.708Z,33.28
2023-02-17T15:52:16.350Z,27.20
2023-02-17T15:54:45.399Z,28.75
2023-02-17T15:57:21.880Z,33.25
2023-02-17T15:59:50.636Z,33.60
2023-02-17T16:02:23.598Z,27.60
2023-02-17T16:04:51.958Z,29.95
2023-02-17T16:07:20.085Z,28.00
2023-02-17T16:09:48.244Z,25.80
2023-02-17T16:12:26.319Z,28.17
2023-02-17T16:14:55.041Z,28.30
2023-02-17T16:17:25.168Z,26.55
2023-02-17T16:19:55.754Z,26.35
2023-02-17T16:22:24.448Z,25.98
2023-02-17T16:24:53.030Z,26.55
2023-02-17T16:27:21.399Z,23.17
2023-02-17T16:29:49.599Z,26.55
2023-02-17T16:32:17.882Z,22.27
2023-02-17T16:34:49.395Z,21.20
2023-02-17T16:37:19.486Z,21.52
2023-02-17T16:39:48.094Z,20.35
2023-02-17T16:42:16.488Z,19.77
2023-02-17T16:44:48.552Z,22.15
2023-02-17T16:47:22.438Z,18.67
2023-02-17T16:49:52.012Z,18.67
2023-02-17T16:52:25.164Z,14.95
2023-02-17T16:54:53.773Z,17.50
2023-02-17T16:57:22.650Z,16.67
2023-02-17T16:59:50.874Z,16.67
2023-02-17T17:02:21.313Z,15.63
2023-02-17T17:04:54.108Z,15.65
2023-02-17T17:07:22.394Z,14.25
2023-02-17T17:10:14.335Z,14.40
2023-02-17T17:12:39.575Z,13.73
2023-02-17T17:15:08.408Z,16.13
2023-02-17T17:17:41.066Z,16.48
2023-02-17T17:20:17.326Z,12.73
2023-02-17T17:22:46.740Z,14.23
2023-02-17T17:25:15.681Z,12.73
2023-02-17T17:27:44.807Z,10.30
2023-02-17T17:30:18.221Z,14.30
2023-02-17T17:32:46.884Z,12.10
2023-02-17T17:35:20.068Z,11.68
2023-02-17T17:37:48.928Z,13.02
2023-02-17T17:40:20.182Z,11.32
2023-02-17T17:42:48.570Z,17.20
2023-02-17T17:45:16.982Z,9.82
2023-02-17T17:47:45.565Z,11.10
2023-02-17T17:50:20.363Z,10.95
2023-02-17T17:52:49.002Z,12.95
2023-02-17T17:55:17.287Z,10.27
2023-02-17T17:57:45.657Z,9.90
2023-02-17T18:00:18.322Z,11.20
2023-02-17T18:02:46.751Z,11.13
2023-02-17T18:05:14.969Z,14.68
2023-02-17T18:07:47.825Z,12.95
2023-02-17T18:10:18.322Z,14.35
2023-02-17T18:12:48.375Z,14.63
2023-02-17T18:15:18.129Z,16.52
2023-02-17T18:17:48.354Z,26.27
2023-02-17T18:20:16.928Z,17.83
2023-02-17T18:22:46.450Z,17.75
2023-02-17T18:25:14.891Z,16.60
2023-02-17T18:27:44.309Z,18.58
2023-02-17T18:30:19.667Z,15.15
2023-02-17T18:32:50.428Z,16.73
2023-02-17T18:35:22.100Z,16.40
2023-02-17T18:37:51.704Z,17.67
2023-02-17T18:40:22.974Z,20.83
2023-02-17T18:42:51.235Z,27.33
2023-02-17T18:45:20.020Z,20.77
2023-02-17T18:47:48.673Z,17.70
2023-02-17T18:50:17.419Z,24.60
2023-02-17T18:52:45.848Z,21.17
2023-02-17T18:55:15.635Z,18.42
2023-02-17T18:57:45.224Z,19.20
2023-02-17T19:00:17.027Z,21.85
2023-02-17T19:02:45.331Z,18.83
2023-02-17T19:05:17.482Z,15.35
2023-02-17T19:07:45.766Z,17.00
2023-02-17T19:10:18.493Z,18.45
2023-02-17T19:12:46.664Z,12.98
2023-02-17T19:15:17.230Z,10.70
2023-02-17T19:17:45.795Z,8.75
2023-02-17T19:20:16.874Z,10.38
2023-02-17T19:22:45.162Z,8.65
2023-02-17T19:25:13.675Z,12.10
2023-02-17T19:27:43.408Z,15.40
2023-02-17T19:30:13.290Z,14.55
2023-02-17T19:32:41.874Z,14.05
2023-02-17T19:35:11.669Z,12.85
2023-02-17T19:37:40.176Z,10.55
2023-02-17T19:40:09.471Z,11.38
2023-02-17T19:42:37.945Z,16.08
2023-02-17T19:45:08.096Z,12.02
2023-02-17T19:47:38.395Z,10.60
2023-02-17T19:50:08.245Z,10.55
2023-02-17T19:52:38.239Z,20.48
2023-02-17T19:55:06.966Z,17.05
2023-02-17T19:57:35.237Z,14.70
2023-02-17T20:00:09.671Z,16.20
2023-02-17T20:02:38.965Z,12.45
2023-02-17T20:05:11.782Z,19.38
2023-02-17T20:10:12.426Z,23.63
2023-02-17T20:12:40.744Z,13.18
2023-02-17T20:15:11.003Z,21.13
2023-02-17T20:17:39.933Z,17.98
2023-02-17T20:20:12.214Z,18.02
2023-02-17T20:22:40.684Z,13.60
2023-02-17T20:25:09.672Z,14.93
2023-02-17T20:27:37.833Z,13.27
2023-02-17T20:30:07.404Z,13.20
2023-02-17T20:32:37.184Z,13.57
2023-02-17T20:35:08.008Z,17.35
2023-02-17T20:37:38.706Z,15.13
2023-02-17T20:40:08.369Z,17.73
2023-02-17T20:42:36.482Z,18.63
2023-02-17T20:45:05.556Z,22.33
2023-02-17T20:47:33.729Z,13.35
2023-02-17T20:50:08.775Z,22.90
2023-02-17T20:52:37.039Z,17.05
2023-02-17T20:55:05.550Z,18.48
2023-02-17T20:57:33.892Z,21.25
2023-02-17T21:00:02.563Z,12.20
2023-02-17T21:02:30.920Z,22.88
2023-02-17T21:04:59.536Z,27.67
2023-02-17T21:07:29.049Z,22.00
2023-02-17T21:09:57.164Z,17.13
2023-02-17T21:12:25.512Z,16.45
2023-02-17T21:14:53.634Z,18.48
2023-02-17T21:17:21.796Z,19.70
2023-02-17T21:19:50.601Z,21.38
2023-02-17T21:22:19.384Z,25.65
2023-02-17T21:24:48.896Z,19.85
2023-02-17T21:27:17.217Z,20.15
2023-02-17T21:29:45.534Z,26.52
2023-02-17T21:32:13.781Z,20.58
2023-02-17T21:34:42.670Z,16.50
2023-02-17T21:37:11.664Z,21.02
2023-02-17T21:39:40.290Z,22.90
2023-02-17T21:42:09.915Z,23.80
2023-02-17T21:44:52.567Z,21.23
2023-02-17T21:47:21.761Z,18.08
2023-02-17T21:49:53.475Z,22.10
2023-02-17T21:52:21.717Z,22.83
2023-02-17T21:54:50.398Z,18.85
2023-02-17T21:57:20.345Z,20.88
2023-02-17T21:59:48.494Z,18.95
2023-02-17T22:02:16.659Z,23.92
2023-02-17T22:04:45.052Z,21.30
2023-02-17T22:07:13.603Z,20.48
2023-02-17T22:09:41.825Z,23.92
2023-02-17T22:12:10.184Z,16.90
2023-02-17T22:14:40.143Z,27.67
2023-02-17T22:17:08.370Z,27.98
2023-02-17T22:19:36.468Z,25.80
2023-02-17T22:22:04.789Z,23.33
2023-02-17T22:24:32.936Z,26.67
2023-02-17T22:27:01.091Z,20.55
2023-02-17T22:29:29.625Z,20.92
2023-02-17T22:31:59.449Z,19.60
2023-02-17T22:34:29.013Z,18.15
2023-02-17T22:36:57.415Z,21.17
2023-02-17T22:39:25.674Z,21.05
2023-02-17T22:41:54.205Z,19.52
2023-02-17T22:44:22.711Z,18.98
2023-02-17T22:46:51.060Z,21.65
2023-02-17T22:49:20.686Z,17.27
2023-02-17T22:51:52.636Z,21.00
2023-02-17T22:54:21.077Z,22.52
2023-02-17T22:56:49.439Z,20.27
2023-02-17T22:59:17.567Z,26.40
2023-02-17T23:01:46.214Z,19.92
2023-02-17T23:04:15.113Z,22.23
2023-02-17T23:06:45.513Z,25.30
2023-02-17T23:09:17.543Z,22.25
2023-02-17T23:11:54.125Z,28.43
2023-02-17T23:14:25.740Z,23.60
2023-02-17T23:16:56.233Z,33.78
2023-02-17T23:19:25.344Z,27.10
2023-02-17T23:21:57.193Z,24.67
2023-02-17T23:24:27.039Z,25.85
2023-02-17T23:26:57.407Z,20.27
2023-02-17T23:29:25.992Z,23.27
2023-02-17T23:31:54.491Z,23.55
2023-02-17T23:34:22.702Z,25.85
2023-02-17T23:36:51.207Z,27.80
2023-02-17T23:39:20.891Z,17.83
2023-02-17T23:41:49.256Z,24.92
2023-02-17T23:44:17.937Z,32.35
2023-02-17T23:46:47.049Z,23.42
2023-02-17T23:49:16.881Z,35.35
2023-02-17T23:51:46.776Z,28.02
2023-02-17T23:54:15.658Z,24.38
2023-02-17T23:56:45.253Z,25.77
2023-02-17T23:59:13.505Z,31.50
